Time;durP1;ratioP1;P1;durP2;ratioP2;P2;SDS_P1;SDS_P2;PMS_P1;PMS_P2;Temp;Humidity;BMP_temperature;BMP_pressure;BME280_temperature;BME280_humidity;BME280_pressure;Samples;Min_cycle;Max_cycle;Signal;HPM_P1;HPM_P2
2022/08/30 00:02:59;;;;;;;;;3.50;3.00;;;;;25.32;35.74;101253.03;5032478;28;45354;-41
2022/08/30 00:05:25;;;;;;;;;3.25;3.00;;;;;25.32;35.67;101261.81;5034020;28;45400;-41
2022/08/30 00:07:51;;;;;;;;;4.75;4.00;;;;;25.32;35.99;101269.78;5034519;28;47516;-42
2022/08/30 00:10:17;;;;;;;;;7.00;4.75;;;;;25.31;35.50;101262.78;5035415;28;46250;-41
2022/08/30 00:12:42;;;;;;;;;5.75;5.25;;;;;25.32;36.02;101276.91;5035896;28;45256;-42
2022/08/30 00:15:09;;;;;;;;;4.00;4.00;;;;;25.31;35.63;101277.84;5035433;28;45336;-43
2022/08/30 00:17:35;;;;;;;;;5.75;3.00;;;;;25.31;36.12;101272.56;5034974;28;46536;-51
2022/08/30 00:20:01;;;;;;;;;5.00;3.00;;;;;25.31;35.63;101269.91;5035570;28;45363;-50
2022/08/30 00:22:26;;;;;;;;;4.25;3.00;;;;;25.30;36.02;101269.03;5035615;28;45319;-52
2022/08/30 00:24:51;;;;;;;;;6.00;4.00;;;;;25.30;36.14;101261.06;5035512;28;45613;-49
2022/08/30 00:27:17;;;;;;;;;8.50;4.25;;;;;25.31;36.14;101264.59;5034162;28;47626;-44
2022/08/30 00:29:42;;;;;;;;;4.25;4.25;;;;;25.29;35.99;101258.53;5035344;28;45441;-46
2022/08/30 00:32:07;;;;;;;;;4.00;3.00;;;;;25.28;35.99;101257.69;5035543;28;45351;-44
2022/08/30 00:34:33;;;;;;;;;6.00;3.75;;;;;25.28;35.97;101255.03;5036075;28;45498;-42
2022/08/30 00:36:59;;;;;;;;;4.00;4.00;;;;;25.28;35.74;101249.75;5035266;28;46086;-45
2022/08/30 00:39:25;;;;;;;;;3.00;3.00;;;;;25.28;35.60;101248.88;5034857;28;45462;-43
2022/08/30 00:41:50;;;;;;;;;6.50;4.25;;;;;25.28;36.00;101252.41;5035377;28;45363;-42
2022/08/30 00:44:16;;;;;;;;;3.00;3.00;;;;;25.26;35.38;101249.00;5035110;28;45312;-42
2022/08/30 00:46:41;;;;;;;;;3.75;3.50;;;;;25.27;35.84;101256.00;5035174;28;45456;-42
2022/08/30 00:49:11;;;;;;;;;4.75;3.00;;;;;25.26;35.31;101243.69;5035821;28;45389;-40
2022/08/30 00:51:39;;;;;;;;;5.75;3.75;;;;;25.26;35.58;101246.34;5034662;28;45357;-43
2022/08/30 00:54:04;;;;;;;;;5.25;4.25;;;;;25.25;35.42;101246.44;5034809;28;45438;-46
2022/08/30 00:56:32;;;;;;;;;3.75;3.75;;;;;25.25;35.40;101243.78;5034605;28;45513;-40
2022/08/30 00:59:00;;;;;;;;;3.75;3.00;;;;;25.25;35.46;101243.78;5034994;28;45758;-41
2022/08/30 01:01:27;;;;;;;;;6.75;4.00;;;;;25.22;35.43;101247.50;5034859;28;45365;-40
2022/08/30 01:03:53;;;;;;;;;2.25;2.00;;;;;25.24;35.55;101248.25;5035000;28;45466;-40
2022/08/30 01:06:18;;;;;;;;;5.00;3.75;;;;;25.24;35.42;101258.03;5034489;28;45454;-43
2022/08/30 01:08:45;;;;;;;;;4.75;3.50;;;;;25.23;35.47;101259.81;5034878;28;45381;-42
2022/08/30 01:11:14;;;;;;;;;6.00;3.50;;;;;25.23;35.75;101257.16;5034486;28;45330;-41
2022/08/30 01:13:39;;;;;;;;;4.00;3.00;;;;;25.23;35.48;101254.50;5035171;28;45590;-41
2022/08/30 01:16:05;;;;;;;;;4.75;4.00;;;;;25.23;35.83;101256.31;5034449;28;46244;-41
2022/08/30 01:18:30;;;;;;;;;4.00;3.00;;;;;25.22;35.58;101252.81;5034385;28;45311;-41
2022/08/30 01:21:21;;;;;;;;;3.25;3.00;;;;;25.22;35.83;101257.28;5034660;28;45364;-45
2022/08/30 01:23:49;;;;;;;;;4.75;3.00;;;;;25.23;35.27;101261.63;5034790;28;45372;-41
2022/08/30 01:26:16;;;;;;;;;2.50;2.50;;;;;25.22;35.36;101266.06;5034017;28;45653;-40
2022/08/30 01:28:45;;;;;;;;;0.75;0.00;;;;;25.23;35.78;101266.94;5034397;28;45335;-41
2022/08/30 01:31:10;;;;;;;;;4.25;4.25;;;;;25.21;35.96;101267.00;5034346;28;45328;-40
2022/08/30 01:33:37;;;;;;;;;4.25;3.50;;;;;25.21;35.65;101272.31;5035342;28;45526;-41
2022/08/30 01:36:05;;;;;;;;;5.00;4.00;;;;;25.20;35.66;101275.94;5034123;28;47122;-41
2022/08/30 01:38:38;;;;;;;;;4.00;4.00;;;;;25.20;35.84;101281.22;5033944;28;45406;-41
2022/08/30 01:41:19;;;;;;;;;4.75;3.50;;;;;25.19;35.40;101284.84;5035455;28;45816;-42
2022/08/30 01:43:45;;;;;;;;;3.50;3.50;;;;;25.19;35.65;101287.50;5034376;28;45373;-46
2022/08/30 01:46:13;;;;;;;;;7.75;4.00;;;;;25.19;35.73;101286.66;5033935;28;46396;-48
2022/08/30 01:48:40;;;;;;;;;4.00;4.00;;;;;25.18;35.16;101283.16;5034992;28;45691;-43
2022/08/30 01:51:10;;;;;;;;;5.00;4.00;;;;;25.19;35.66;101287.50;5035194;28;45281;-43
2022/08/30 01:53:36;;;;;;;;;3.75;3.75;;;;;25.18;34.95;101291.13;5035100;28;45452;-41
2022/08/30 01:56:01;;;;;;;;;6.25;4.00;;;;;25.17;35.76;101295.56;5033903;28;45482;-41
2022/08/30 01:58:27;;;;;;;;;5.25;4.00;;;;;25.17;35.83;101298.22;5033739;28;45430;-42
2022/08/30 02:00:52;;;;;;;;;3.50;3.50;;;;;25.17;35.43;101292.06;5034141;28;45312;-45
2022/08/30 02:03:18;;;;;;;;;6.00;4.00;;;;;25.15;35.68;101278.06;5033901;28;45560;-42
2022/08/30 02:05:44;;;;;;;;;5.00;3.75;;;;;25.15;35.78;101272.75;5034070;28;45727;-41
2022/08/30 02:08:09;;;;;;;;;6.50;4.25;;;;;25.15;35.43;101272.75;5033711;28;45650;-42
2022/08/30 02:10:35;;;;;;;;;5.00;3.50;;;;;25.14;35.69;101273.72;5034756;28;45354;-42
2022/08/30 02:13:01;;;;;;;;;4.00;4.00;;;;;25.14;35.82;101276.38;5034075;28;45502;-46
2022/08/30 02:15:27;;;;;;;;;5.50;4.00;;;;;25.13;35.45;101285.28;5033406;28;47290;-41
2022/08/30 02:17:52;;;;;;;;;7.75;4.00;;;;;25.12;35.91;101280.91;5033633;28;45590;-43
2022/08/30 02:20:18;;;;;;;;;5.25;4.00;;;;;25.13;35.81;101282.63;5033500;28;45572;-41
2022/08/30 02:22:44;;;;;;;;;3.50;3.00;;;;;25.13;35.65;101282.63;5034106;28;45490;-43
2022/08/30 02:25:09;;;;;;;;;4.00;3.50;;;;;25.11;35.32;101288.03;5031662;28;46103;-42
2022/08/30 02:27:34;;;;;;;;;4.00;3.50;;;;;25.12;35.34;101287.09;5034392;28;45467;-41
2022/08/30 02:30:00;;;;;;;;;7.00;4.25;;;;;25.12;35.79;101294.19;5033547;28;45386;-41
2022/08/30 02:32:26;;;;;;;;;3.25;2.75;;;;;25.12;35.34;101287.09;5033310;28;45569;-47
2022/08/30 02:34:51;;;;;;;;;5.00;3.00;;;;;25.11;36.02;101284.53;5033400;28;45371;-46
2022/08/30 02:37:17;;;;;;;;;4.50;4.50;;;;;25.12;35.18;101287.09;5031693;28;45367;-45
2022/08/30 02:39:42;;;;;;;;;3.75;3.00;;;;;25.12;35.97;101283.56;5033324;28;45390;-42
2022/08/30 02:42:08;;;;;;;;;7.00;4.00;;;;;25.12;35.51;101278.25;5034410;28;45250;-45
2022/08/30 02:44:33;;;;;;;;;4.00;4.00;;;;;25.11;35.64;101273.91;5033066;28;46507;-42
2022/08/30 02:46:58;;;;;;;;;5.25;4.00;;;;;25.10;35.46;101275.72;5033356;28;45226;-48
2022/08/30 02:49:24;;;;;;;;;4.50;4.50;;;;;25.10;36.05;101281.03;5033051;28;45442;-41
2022/08/30 02:51:49;;;;;;;;;7.00;5.25;;;;;25.10;35.96;101285.47;5033360;28;45333;-44
2022/08/30 02:54:18;;;;;;;;;3.00;3.00;;;;;25.09;36.09;101287.28;5032855;28;45374;-45
2022/08/30 02:56:45;;;;;;;;;3.50;3.00;;;;;25.09;35.32;101289.06;5033307;28;45485;-49
2022/08/30 02:59:11;;;;;;;;;3.25;3.25;;;;;25.09;35.89;101289.06;5032835;28;45404;-50
2022/08/30 03:01:37;;;;;;;;;5.00;4.25;;;;;25.09;35.90;101295.25;5034294;28;45319;-44
2022/08/30 03:04:04;;;;;;;;;4.25;3.75;;;;;25.09;35.41;101289.94;5032903;28;45330;-46
2022/08/30 03:06:30;;;;;;;;;4.75;4.75;;;;;25.07;35.87;101286.53;5032782;28;45268;-53
2022/08/30 03:08:55;;;;;;;;;8.00;3.50;;;;;25.07;35.56;101280.41;5032837;28;45190;-48
2022/08/30 03:11:21;;;;;;;;;3.00;3.00;;;;;25.06;36.15;101284.84;5032588;28;45276;-48
2022/08/30 03:13:46;;;;;;;;;6.50;5.00;;;;;25.08;36.25;101292.72;5032767;28;45660;-47
2022/08/30 03:16:12;;;;;;;;;6.00;4.75;;;;;25.07;36.77;101297.16;5032660;28;45223;-47
2022/08/30 03:18:37;;;;;;;;;7.50;4.75;;;;;25.09;36.91;101310.28;5033772;28;45461;-45
2022/08/30 03:21:10;;;;;;;;;5.00;5.00;;;;;25.09;36.90;101318.25;5033076;28;45558;-43
2022/08/30 03:23:35;;;;;;;;;8.25;5.75;;;;;25.09;36.99;101310.28;5033675;28;46357;-46
2022/08/30 03:26:00;;;;;;;;;5.50;4.25;;;;;25.08;37.61;101298.84;5032719;28;45319;-49
2022/08/30 03:28:25;;;;;;;;;7.00;6.00;;;;;25.09;37.41;101291.72;5032534;28;45383;-44
2022/08/30 03:30:51;;;;;;;;;5.50;4.25;;;;;25.08;37.85;101282.09;5032956;28;45307;-45
2022/08/30 03:33:16;;;;;;;;;7.25;4.75;;;;;25.07;37.65;101261.84;5032282;28;46210;-53
2022/08/30 03:35:45;;;;;;;;;4.25;4.25;;;;;25.07;37.65;101237.97;5032585;28;45227;-49
2022/08/30 03:38:10;;;;;;;;;8.75;6.00;;;;;25.04;38.52;101223.09;5032468;28;45433;-49
2022/08/30 03:40:35;;;;;;;;;4.00;4.00;;;;;25.04;38.67;101219.59;5037255;28;45272;-50
2022/08/30 03:43:01;;;;;;;;;6.75;5.25;;;;;25.04;38.74;101209.00;5035982;28;46842;-46
2022/08/30 03:45:26;;;;;;;;;6.00;4.50;;;;;25.01;38.29;101207.41;5035857;28;45374;-45
2022/08/30 03:47:52;;;;;;;;;6.00;5.00;;;;;25.01;38.44;101202.09;5036195;28;45362;-41
2022/08/30 03:50:17;;;;;;;;;4.00;3.25;;;;;24.99;38.42;101196.88;5035594;28;45237;-46
2022/08/30 03:52:44;;;;;;;;;7.75;7.00;;;;;24.98;38.74;101208.44;5035839;28;45531;-42
2022/08/30 03:55:10;;;;;;;;;6.25;6.25;;;;;24.99;39.30;101217.28;5034352;28;45707;-44
2022/08/30 03:57:35;;;;;;;;;7.75;6.00;;;;;24.98;38.91;101219.06;5036980;28;45522;-50
2022/08/30 04:00:01;;;;;;;;;6.00;5.25;;;;;24.97;39.29;101217.34;5036228;28;45549;-45
2022/08/30 04:02:27;;;;;;;;;7.50;6.25;;;;;24.94;38.81;101204.31;5035475;28;46143;-47
2022/08/30 04:04:52;;;;;;;;;7.25;7.00;;;;;24.95;39.13;101206.03;5035650;28;45239;-43
2022/08/30 04:07:18;;;;;;;;;8.75;8.00;;;;;24.95;38.98;101198.06;5035682;28;45432;-45
2022/08/30 04:09:44;;;;;;;;;9.00;7.00;;;;;24.93;39.13;101194.66;5035928;28;45406;-43
2022/08/30 04:12:09;;;;;;;;;7.50;6.00;;;;;24.94;39.54;101199.03;5035508;28;45358;-42
2022/08/30 04:14:35;;;;;;;;;5.25;5.25;;;;;24.92;39.20;101198.28;5036310;28;46525;-43
2022/08/30 04:17:00;;;;;;;;;7.00;6.25;;;;;24.93;39.65;101210.59;5035613;28;45264;-47
2022/08/30 04:19:25;;;;;;;;;9.25;4.75;;;;;24.94;39.27;101206.13;5035640;28;45449;-52
2022/08/30 04:21:50;;;;;;;;;6.00;6.00;;;;;24.94;39.19;101206.97;5035310;28;46683;-54
2022/08/30 04:24:16;;;;;;;;;5.00;5.00;;;;;24.93;39.20;101202.63;5035180;28;45358;-42
2022/08/30 04:26:42;;;;;;;;;5.50;5.25;;;;;24.94;39.58;101211.41;5035567;28;45445;-44
2022/08/30 04:29:07;;;;;;;;;6.75;6.50;;;;;24.95;39.57;101208.69;5036713;28;45764;-44
2022/08/30 04:31:33;;;;;;;;;11.00;7.50;;;;;24.95;39.81;101208.69;5035071;28;46091;-41
2022/08/30 04:33:58;;;;;;;;;4.25;4.25;;;;;24.94;39.94;101201.69;5035533;28;45241;-41
2022/08/30 04:36:23;;;;;;;;;4.75;4.25;;;;;24.96;39.29;101207.72;5035294;28;45324;-42
2022/08/30 04:38:49;;;;;;;;;6.25;4.25;;;;;24.96;39.82;101206.88;5035675;28;45577;-41
2022/08/30 04:41:17;;;;;;;;;7.75;5.00;;;;;24.96;39.48;101202.44;5034829;28;46575;-41
2022/08/30 04:43:49;;;;;;;;;5.00;4.25;;;;;24.97;39.53;101201.44;5035279;28;45670;-45
2022/08/30 04:46:15;;;;;;;;;6.00;6.00;;;;;24.96;40.08;101210.38;5034844;28;45319;-46
2022/08/30 04:48:40;;;;;;;;;7.00;5.50;;;;;24.96;39.66;101215.69;5035267;28;45351;-46
2022/08/30 04:51:08;;;;;;;;;4.50;4.50;;;;;24.96;39.58;101215.69;5034374;28;45465;-52
2022/08/30 04:53:34;;;;;;;;;5.00;5.00;;;;;24.97;40.25;101217.34;5034764;28;45367;-44
2022/08/30 04:55:59;;;;;;;;;6.00;4.25;;;;;24.97;39.63;101211.22;5035156;28;45310;-50
2022/08/30 04:58:24;;;;;;;;;5.00;4.25;;;;;24.95;39.75;101203.38;5034981;28;45524;-42
2022/08/30 05:00:50;;;;;;;;;5.25;5.25;;;;;24.96;39.85;101205.06;5034856;28;45441;-47
2022/08/30 05:03:16;;;;;;;;;4.75;4.75;;;;;24.97;39.90;101209.41;5033094;28;45415;-47
2022/08/30 05:05:47;;;;;;;;;5.00;5.00;;;;;24.98;39.50;101215.56;5035011;28;45346;-51
2022/08/30 05:08:15;;;;;;;;;6.75;5.00;;;;;24.96;39.72;101215.69;5034896;28;45515;-51
2022/08/30 05:10:43;;;;;;;;;7.25;6.25;;;;;24.97;39.90;101212.03;5034512;28;46435;-45
2022/08/30 05:13:10;;;;;;;;;4.00;4.00;;;;;24.95;39.77;101213.13;5035726;28;45576;-47
2022/08/30 05:15:36;;;;;;;;;4.75;4.75;;;;;24.95;39.64;101218.41;5035722;28;45232;-53
2022/08/30 05:18:03;;;;;;;;;6.00;6.00;;;;;24.95;40.01;101223.72;5034853;28;45458;-50
2022/08/30 05:20:29;;;;;;;;;5.00;5.00;;;;;24.95;40.05;101234.31;5034409;28;46196;-52
2022/08/30 05:22:54;;;;;;;;;8.00;6.25;;;;;24.94;39.45;101236.16;5034512;28;45484;-49
2022/08/30 05:25:23;;;;;;;;;6.75;4.25;;;;;24.94;39.94;101227.31;5034279;28;45413;-49
2022/08/30 05:27:48;;;;;;;;;5.25;4.00;;;;;24.94;40.12;101228.19;5034866;28;45235;-42
2022/08/30 05:30:15;;;;;;;;;6.50;5.00;;;;;24.93;39.46;101228.28;5034071;28;46616;-54
2022/08/30 05:32:42;;;;;;;;;5.00;4.00;;;;;24.94;39.51;101243.22;5034359;28;45296;-49
2022/08/30 05:35:10;;;;;;;;;8.00;5.00;;;;;24.95;39.93;101248.44;5035416;28;45427;-41
2022/08/30 05:37:36;;;;;;;;;5.25;4.00;;;;;24.95;39.45;101248.44;5035503;28;45518;-42
2022/08/30 05:40:03;;;;;;;;;6.00;6.00;;;;;24.94;39.87;101244.09;5034247;28;46500;-43
2022/08/30 05:42:29;;;;;;;;;6.50;5.00;;;;;24.94;39.70;101251.19;5032737;28;45703;-49
2022/08/30 05:44:54;;;;;;;;;5.00;5.00;;;;;24.94;39.92;101252.06;5034253;28;45335;-43
2022/08/30 05:47:20;;;;;;;;;7.50;5.00;;;;;24.94;39.65;101253.84;5032470;28;45332;-51
2022/08/30 05:49:46;;;;;;;;;4.00;4.00;;;;;24.94;39.86;101249.41;5033916;28;45680;-42
2022/08/30 05:52:14;;;;;;;;;5.00;5.00;;;;;24.93;39.94;101247.69;5033947;28;45626;-43
2022/08/30 05:54:40;;;;;;;;;7.00;5.75;;;;;24.94;39.24;101259.16;5034194;28;45400;-44
2022/08/30 05:57:05;;;;;;;;;5.25;4.25;;;;;24.93;39.17;101252.13;5034890;28;45497;-40
2022/08/30 05:59:31;;;;;;;;;2.00;1.50;;;;;24.92;39.38;101255.75;5033463;28;45435;-47
2022/08/30 06:01:57;;;;;;;;;5.75;5.25;;;;;24.92;39.56;101256.59;5032921;28;54972;-41
2022/08/30 06:04:22;;;;;;;;;5.25;3.25;;;;;24.92;39.53;101261.03;5033627;28;45348;-50
2022/08/30 06:06:48;;;;;;;;;5.00;3.50;;;;;24.90;39.14;101250.56;5034126;28;45448;-50
2022/08/30 06:09:14;;;;;;;;;5.00;3.75;;;;;24.92;39.61;101251.31;5033425;28;45895;-49
2022/08/30 06:11:40;;;;;;;;;7.25;5.00;;;;;24.92;39.70;101248.66;5033545;28;45323;-50
2022/08/30 06:14:06;;;;;;;;;5.00;3.75;;;;;24.91;39.51;101241.66;5034488;28;45338;-50
2022/08/30 06:16:32;;;;;;;;;6.00;6.00;;;;;24.92;39.77;101240.69;5033575;28;45544;-50
2022/08/30 06:18:59;;;;;;;;;6.00;6.00;;;;;24.92;39.62;101246.00;5033241;28;46059;-52
2022/08/30 06:21:30;;;;;;;;;5.75;4.00;;;;;24.92;38.87;101251.31;5033430;28;45866;-49
2022/08/30 06:23:57;;;;;;;;;8.00;4.25;;;;;24.91;38.83;101252.25;5032081;28;45338;-48
2022/08/30 06:26:22;;;;;;;;;8.25;6.00;;;;;24.91;39.09;101248.75;5033279;28;45573;-51
2022/08/30 06:28:49;;;;;;;;;9.50;6.00;;;;;24.90;38.88;101253.19;5033126;28;45639;-44
2022/08/30 06:31:16;;;;;;;;;8.00;5.25;;;;;24.89;39.09;101251.50;5033381;28;45825;-49
2022/08/30 06:33:42;;;;;;;;;6.25;5.00;;;;;24.87;39.45;101253.41;5033655;28;45330;-47
2022/08/30 06:36:14;;;;;;;;;5.50;5.50;;;;;24.89;39.23;101256.81;5034357;28;45267;-52
2022/08/30 06:38:39;;;;;;;;;4.25;4.25;;;;;24.88;38.79;101259.56;5031882;28;48048;-44
2022/08/30 06:41:07;;;;;;;;;5.25;5.25;;;;;24.89;39.27;101254.16;5034218;28;45355;-49
2022/08/30 06:43:33;;;;;;;;;8.00;5.00;;;;;24.88;38.81;101257.75;5033081;28;45285;-49
2022/08/30 06:46:02;;;;;;;;;5.25;5.25;;;;;24.89;38.78;101261.28;5032389;28;45881;-46
2022/08/30 06:48:28;;;;;;;;;7.50;6.50;;;;;24.88;39.14;101257.75;5032811;28;45621;-45
2022/08/30 06:50:54;;;;;;;;;9.00;6.25;;;;;24.88;38.81;101257.75;5033451;28;45437;-44
2022/08/30 06:53:19;;;;;;;;;5.25;4.75;;;;;24.87;39.17;101258.69;5033224;28;45493;-47
2022/08/30 06:55:44;;;;;;;;;6.25;5.25;;;;;24.87;38.65;101260.53;5033543;28;45240;-44
2022/08/30 06:58:10;;;;;;;;;6.00;5.75;;;;;24.85;39.09;101258.81;5032830;28;45409;-43
2022/08/30 07:00:35;;;;;;;;;6.75;6.00;;;;;24.87;39.41;101264.00;5033840;28;45448;-46
2022/08/30 07:03:01;;;;;;;;;8.00;6.00;;;;;24.88;39.38;101265.72;5033127;28;45298;-41
2022/08/30 07:05:27;;;;;;;;;5.50;4.25;;;;;24.86;39.37;101262.31;5032966;28;45309;-42
2022/08/30 07:07:53;;;;;;;;;7.00;7.00;;;;;24.89;39.46;101269.22;5032899;28;45414;-48
2022/08/30 07:10:20;;;;;;;;;5.00;5.00;;;;;24.90;39.06;101274.41;5032576;28;45328;-42
2022/08/30 07:12:45;;;;;;;;;6.25;6.25;;;;;24.91;38.81;101272.63;5032594;28;45478;-41
2022/08/30 07:15:11;;;;;;;;;7.75;6.75;;;;;24.92;38.82;101276.94;5032181;28;45378;-45
2022/08/30 07:20:20;;;;;;;;;9.00;6.75;;;;;24.93;39.35;101281.31;5032537;28;45365;-42
2022/08/30 07:22:46;;;;;;;;;6.00;6.00;;;;;24.92;39.30;101272.50;5032959;28;45239;-41
2022/08/30 07:25:12;;;;;;;;;7.50;6.00;;;;;24.94;38.92;101277.69;5032545;28;45553;-42
2022/08/30 07:27:38;;;;;;;;;8.00;5.00;;;;;24.95;38.69;101277.63;5033379;28;45599;-42
2022/08/30 07:30:06;;;;;;;;;9.00;7.00;;;;;24.95;38.80;101280.28;5032702;28;45457;-42
2022/08/30 07:32:31;;;;;;;;;5.75;5.00;;;;;24.95;39.29;101277.63;5032538;28;45392;-45
2022/08/30 07:34:56;;;;;;;;;9.00;6.75;;;;;24.95;39.01;101277.63;5033042;28;45482;-46
2022/08/30 07:37:22;;;;;;;;;6.50;6.25;;;;;24.94;39.21;101275.91;5032203;28;46375;-45
2022/08/30 07:39:47;;;;;;;;;7.75;5.75;;;;;24.96;39.24;101275.81;5032340;28;45362;-42
2022/08/30 07:42:13;;;;;;;;;5.50;5.25;;;;;24.97;39.42;101282.81;5032230;28;45257;-44
2022/08/30 07:44:38;;;;;;;;;6.50;6.25;;;;;24.98;39.49;101273.91;5033645;28;45613;-45
2022/08/30 07:47:04;;;;;;;;;3.00;2.00;;;;;24.98;39.02;101279.22;5031254;28;48034;-45
2022/08/30 07:49:29;;;;;;;;;10.25;7.50;;;;;24.97;39.38;101274.84;5032216;28;45220;-45
2022/08/30 07:51:56;;;;;;;;;9.00;7.75;;;;;25.00;39.33;101283.44;5032478;28;45182;-42
2022/08/30 07:54:21;;;;;;;;;10.00;6.00;;;;;25.00;39.09;101282.63;5032275;28;45384;-42
2022/08/30 07:56:47;;;;;;;;;10.00;6.25;;;;;24.99;39.25;101280.91;5032257;28;46954;-41
2022/08/30 07:59:13;;;;;;;;;7.75;6.00;;;;;24.99;38.91;101280.91;5031828;28;45279;-43
2022/08/30 08:01:38;;;;;;;;;11.75;6.00;;;;;24.98;39.46;101280.03;5033170;28;45426;-45
2022/08/30 08:04:03;;;;;;;;;8.25;6.00;;;;;24.98;39.30;101282.69;5033092;28;45453;-40
2022/08/30 08:06:29;;;;;;;;;7.50;7.25;;;;;24.99;39.08;101292.34;5031989;28;46381;-42
2022/08/30 08:08:56;;;;;;;;;5.50;5.50;;;;;24.99;38.64;101291.50;5030644;28;45368;-41
2022/08/30 08:11:24;;;;;;;;;7.00;5.50;;;;;25.00;39.27;101291.41;5031979;28;45385;-41
2022/08/30 08:13:52;;;;;;;;;7.75;7.00;;;;;25.01;38.76;101286.97;5032291;28;45343;-41
2022/08/30 08:16:17;;;;;;;;;7.00;7.00;;;;;25.01;39.03;101287.81;5031782;28;46446;-42
2022/08/30 08:18:43;;;;;;;;;8.50;6.00;;;;;25.03;39.35;101289.50;5032094;28;45281;-41
2022/08/30 08:21:10;;;;;;;;;10.75;7.50;;;;;25.03;38.65;101294.81;5031644;28;45503;-43
2022/08/30 08:23:36;;;;;;;;;7.75;7.75;;;;;25.04;39.37;101294.69;5033011;28;45537;-42
2022/08/30 08:26:02;;;;;;;;;3.00;3.00;;;;;25.05;38.76;101299.03;5034156;28;46821;-41
2022/08/30 08:28:28;;;;;;;;;6.00;6.00;;;;;25.06;39.13;101307.88;5035060;28;45790;-46
2022/08/30 08:30:54;;;;;;;;;7.50;6.25;;;;;25.06;39.05;101300.75;5035556;28;45578;-41
2022/08/30 08:33:19;;;;;;;;;9.50;6.25;;;;;25.07;39.55;101310.41;5035322;28;45587;-41
2022/08/30 08:35:45;;;;;;;;;10.00;7.25;;;;;25.07;40.25;101312.22;5035002;28;46326;-42
2022/08/30 08:38:11;;;;;;;;;10.50;8.50;;;;;25.08;39.54;101316.56;5033534;28;45389;-45
2022/08/30 08:41:06;;;;;;;;;9.50;6.50;;;;;25.10;40.11;101312.00;5035969;28;45274;-44
2022/08/30 08:43:36;;;;;;;;;9.00;7.50;;;;;25.10;39.98;101319.94;5035109;28;45496;-44
2022/08/30 08:46:26;;;;;;;;;9.50;7.00;;;;;25.10;39.73;101318.16;5034913;28;46536;-41
2022/08/30 08:48:56;;;;;;;;;15.25;9.50;;;;;25.11;39.94;101319.00;5034871;28;45347;-41
2022/08/30 08:54:18;;;;;;;;;11.75;8.00;;;;;25.10;39.55;101318.16;5035113;28;45373;-46
2022/08/30 08:56:43;;;;;;;;;12.00;10.75;;;;;25.10;39.42;101323.47;5034906;28;45875;-41
2022/08/30 08:59:10;;;;;;;;;8.75;8.25;;;;;25.11;39.72;101327.81;5035418;28;45800;-45
2022/08/30 09:01:40;;;;;;;;;8.75;7.00;;;;;25.12;40.10;101328.66;5034595;28;45412;-42
2022/08/30 09:04:16;;;;;;;;;11.25;8.25;;;;;25.12;40.06;101336.63;5035990;28;45340;-41
2022/08/30 09:06:49;;;;;;;;;10.75;9.00;;;;;25.11;39.96;101335.78;5034663;28;45406;-42
2022/08/30 09:09:19;;;;;;;;;8.50;8.00;;;;;25.11;39.90;101342.88;5034446;28;45345;-42
2022/08/30 09:11:46;;;;;;;;;11.25;8.75;;;;;25.11;39.19;101346.38;5034898;28;45490;-41
2022/08/30 09:14:18;;;;;;;;;8.25;8.00;;;;;25.10;39.10;101336.72;5034658;28;45607;-41
2022/08/30 09:17:01;;;;;;;;;7.50;7.50;;;;;25.12;39.91;101341.91;5034723;28;45983;-41
2022/08/30 09:19:32;;;;;;;;;10.00;8.00;;;;;25.12;39.23;101336.63;5034264;28;45846;-41
2022/08/30 09:22:01;;;;;;;;;8.25;7.25;;;;;25.12;39.59;101332.19;5033470;28;45453;-43
2022/08/30 09:24:37;;;;;;;;;8.50;7.50;;;;;25.13;39.31;101340.97;5032999;28;45579;-44
2022/08/30 09:27:32;;;;;;;;;8.00;8.00;;;;;25.14;40.02;101340.00;5034537;28;45427;-41
2022/08/30 09:30:13;;;;;;;;;9.25;7.25;;;;;25.13;39.23;101344.50;5015985;28;45416;-45
2022/08/30 09:32:42;;;;;;;;;9.25;8.50;;;;;25.13;39.78;101341.84;5034899;28;45469;-43
2022/08/30 09:35:18;;;;;;;;;9.00;7.25;;;;;25.15;39.29;101339.06;5035594;28;45641;-42
2022/08/30 09:37:55;;;;;;;;;9.75;8.25;;;;;25.16;39.72;101348.72;5033349;28;45691;-41
2022/08/30 09:40:51;;;;;;;;;7.75;7.75;;;;;25.17;39.37;101353.09;5033930;28;45237;-41
2022/08/30 09:43:16;;;;;;;;;7.25;7.25;;;;;25.17;39.37;101350.44;5032695;28;45271;-41
2022/08/30 09:46:07;;;;;;;;;10.75;6.75;;;;;25.17;39.54;101347.78;5033095;28;45541;-43
2022/08/30 09:48:39;;;;;;;;;11.00;9.00;;;;;25.17;39.54;101343.31;5033865;28;46241;-42
2022/08/30 09:51:13;;;;;;;;;8.50;6.25;;;;;25.18;39.39;101346.81;5034952;28;45263;-41
2022/08/30 09:53:57;;;;;;;;;11.75;8.25;;;;;25.19;39.47;101353.81;5034628;28;45454;-42
2022/08/30 09:56:32;;;;;;;;;8.00;8.00;;;;;25.19;39.74;101348.50;5034046;28;45484;-44
2022/08/30 09:59:42;;;;;;;;;6.50;6.25;;;;;25.22;39.35;101344.81;5034059;28;46362;-45
2022/08/30 10:02:35;;;;;;;;;9.00;9.00;;;;;25.23;39.62;101349.16;5021459;28;45740;-43
2022/08/30 10:05:19;;;;;;;;;8.50;8.50;;;;;25.23;39.62;101349.16;5034183;28;45429;-42
2022/08/30 10:08:11;;;;;;;;;9.25;9.00;;;;;25.24;40.05;101357.00;5034258;28;45303;-43
2022/08/30 10:11:00;;;;;;;;;9.50;7.00;;;;;25.24;39.80;101357.00;5034617;28;45591;-42
2022/08/30 10:14:20;;;;;;;;;9.00;8.25;;;;;25.25;40.15;101347.22;5033631;28;45831;-45
2022/08/30 10:17:04;;;;;;;;;10.50;8.00;;;;;25.26;39.97;101354.25;4972496;28;45567;-43
2022/08/30 10:19:32;;;;;;;;;13.75;10.25;;;;;25.26;40.17;101347.16;5028552;28;45382;-46
2022/08/30 10:22:08;;;;;;;;;8.25;8.25;;;;;25.28;39.90;101358.50;5033711;28;46214;-46
2022/08/30 10:24:39;;;;;;;;;9.50;7.25;;;;;25.28;39.83;101353.22;5033501;28;45507;-45
2022/08/30 10:27:10;;;;;;;;;10.50;8.00;;;;;25.29;40.33;101346.94;5034759;28;45324;-45
2022/08/30 10:29:43;;;;;;;;;9.00;8.25;;;;;25.31;40.09;101349.50;5034808;28;45429;-43
2022/08/30 10:32:22;;;;;;;;;11.25;8.50;;;;;25.31;39.95;101345.03;5034499;28;45512;-42
2022/08/30 10:35:09;;;;;;;;;11.50;10.00;;;;;25.32;40.20;101352.03;5033534;28;45331;-45
2022/08/30 10:37:43;;;;;;;;;11.75;9.75;;;;;25.34;39.55;101351.06;5034514;28;45530;-43
2022/08/30 10:43:12;;;;;;;;;11.50;10.00;;;;;25.34;39.81;101351.94;5033524;28;45479;-43
2022/08/30 10:45:43;;;;;;;;;12.50;11.25;;;;;25.34;40.34;101348.41;5034216;28;45876;-42
2022/08/30 10:48:32;;;;;;;;;8.25;7.50;;;;;25.35;40.06;101358.09;5033021;28;45348;-43
2022/08/30 10:51:07;;;;;;;;;10.00;9.25;;;;;25.35;39.74;101352.78;5033515;28;45392;-46
2022/08/30 10:53:42;;;;;;;;;10.00;9.00;;;;;25.35;40.04;101352.78;5031583;28;46153;-44
2022/08/30 10:56:19;;;;;;;;;8.25;7.75;;;;;25.36;39.96;101359.78;5034146;28;45307;-44
2022/08/30 10:58:47;;;;;;;;;12.75;10.00;;;;;25.35;40.12;101353.66;5032894;28;45308;-42
2022/08/30 11:01:28;;;;;;;;;10.75;8.50;;;;;25.35;39.62;101356.31;5031874;28;45381;-44
2022/08/30 11:04:35;;;;;;;;;10.75;9.00;;;;;25.37;39.85;101361.50;5032999;28;45656;-42
2022/08/30 11:07:15;;;;;;;;;9.75;8.25;;;;;25.38;39.62;101355.22;5004374;28;45377;-42
2022/08/30 11:09:52;;;;;;;;;11.25;11.00;;;;;25.38;40.38;101357.88;5033084;28;45326;-46
2022/08/30 11:12:32;;;;;;;;;11.50;10.00;;;;;25.39;40.25;101354.28;5032948;28;45403;-41
2022/08/30 11:14:58;;;;;;;;;12.75;10.50;;;;;25.39;40.23;101348.97;5032868;28;46651;-47
2022/08/30 11:17:39;;;;;;;;;12.75;10.25;;;;;25.39;39.99;101348.97;5032698;28;45865;-41
2022/08/30 11:20:30;;;;;;;;;11.00;10.50;;;;;25.39;40.33;101344.50;5033837;28;45305;-42
2022/08/30 11:23:17;;;;;;;;;13.00;10.50;;;;;25.42;40.08;101348.78;5032892;28;45297;-50
2022/08/30 11:25:56;;;;;;;;;12.00;11.25;;;;;25.42;39.82;101349.63;5032411;28;46523;-50
2022/08/30 11:28:33;;;;;;;;;14.50;12.75;;;;;25.41;39.76;101350.59;5032470;28;45867;-46
2022/08/30 11:31:10;;;;;;;;;12.25;9.75;;;;;25.43;40.46;101345.16;5032833;28;45386;-42
2022/08/30 11:33:39;;;;;;;;;16.00;14.50;;;;;25.44;40.66;101346.88;5033811;28;45373;-47
2022/08/30 11:36:05;;;;;;;;;15.50;13.25;;;;;25.43;40.76;101346.03;5033336;28;46177;-46
2022/08/30 11:38:30;;;;;;;;;13.25;11.75;;;;;25.44;40.92;101346.88;5032361;28;45253;-44
2022/08/30 11:40:57;;;;;;;;;15.67;13.67;;;;;25.44;40.37;101345.09;5032758;28;45348;-43
2022/08/30 11:43:35;;;;;;;;;17.25;16.25;;;;;25.46;40.89;101339.66;5032371;28;45532;-40